Portada
METAR-TAF:

METAR-TAF

Aeroports :

Spaa

Tomaszów Mazowiecki, Polònia

latitud: 51-35-04N, longitud: 020-05-52E, altitud: 174 m

METAR: manca

Hora: 10:32 (08:32 UTC)

Pronòstic

L'informe es va fer fa 3 hores i 32 minuts, a les 05:00 UTC
Pronòstic vàlid del 06 a les 06 UTC al 06 a les 15 UTC
Vent 8 kt del Sud-Oest
Visibilitat 10 km o més
sense núvols per sota de 1500 mi sense presència de cumulonimbus.
Probabilitat 30% :
Temporalment
l' 06 a les 09 UTC al 06 a les 13 UTC
Vent 15 kt del Oest amb ràfegues de 28 kt
Visibilitat: 6000 m
Cel ennuvolat a una alçada de 3000 ft, Cumulonimbus.
xàfecs de pluja
Evolucionant progressivament
l' 06 a les 10 UTC al 06 a les 12 UTC
Vent 12 kt del Oest

TAF: EPTM 060500Z 0606/0615 22008KT CAVOK PROB30 TEMPO 0609/0613 27015G28KT 6000 SHRA BKN030CB BECMG 0610/0612 28012KT

Observacions i pronòstics meteorològics de més de 4000 aeroports (METAR i TAF).

Les estacions disponibles són els punts grocs i vermells al mapa.

Posi el ratolí al punt desitjat per veure el nom de l'estació.

Feu clic per veure les observacions i els pronòstics meteorològics.

Per canviar el mapa: feu clic els botons verds amb una creu de color negre per apropar; al botó verd amb un guió per allunyar la imatge; o en les fletxes verdes per a mapes adjacents.


METAR-TAF: